Pagrindinis puslapis
METAR-TAF:

METAR-TAF

Oro uostai :

Kemis, Suomija

platuma: 65-47N, ilguma: 024-35E, Aukštis: 15 m

Dabartinis oras

Ataskaita buvo paskelbta 24 minutes, ne 02:20 UTC
Vėjas 4 kt iš Šiaurės/Šiaurės Rytų, svyruoja nuo Šiaurės ir Rytų/Šiaurės Rytų
Temperatūra 12°C
Drėgmė 100%
Slėgis 1013 hPa
Matomumas 10 km arba daugiau
Apsiniaukę ne aukštis 100 ft
lietus

METAR: EFKE 240220Z AUTO 03004KT 360V060 9999 -SHRA OVC001 12/12 Q1013

Laikas: 05:44 (02:44 UTC)

Prognozė

Ataskaita buvo paskelbta 12 valandos ir 14 minutes, ne 14:30 UTC
Prognozė galioja nuo 23 metu 15 UTC su 23 metu 18 UTC
Vėjas 8 kt iš Pietryčių
Matomumas 10 km arba daugiau
Su prošvaistėmis ne aukštis 1500 ft
Laikinai
nuo 23 metu 15 UTC su 23 metu 18 UTC
Matomumas: 3000 m
Su prošvaistėmis ne aukštis 300 ft
Mažai debesys ne aukštis 2000 ft, Liūtiniai kamuoliniai debesys.
lietus

TAF: EFKE 231430Z 2315/2318 13008KT 9999 BKN015 TEMPO 2315/2318 3000 SHRA BKN003 FEW020CB

Orai ataskaitas ir orų prognozės (METAR, TAF).

turimą stotys yra geltonos ir raudonos taškus žemėlapyje.

Perkelti pele per norėdami pamatyti stoties vardą.

Tada spustelėkite, norėdami matyti oro stebėjimo ir prognozės.

Norėdami pakeisti žemėlapį: spustelėkite ant žalios mygtukų su juodo kryžiaus žemyn,; žalią mygtuką su brūkšneliu, jei norite nutolinti; arba žalių rodyklių gretimoms žemėlapius.


METAR-TAF: